sensor_id;sensor_type;location;lat;lon;timestamp;P1;durP1;ratioP1;P2;durP2;ratioP2
11845;SDS011;5982;37.494;-8.758;2022-10-31T00:02:27;3.65;;;0.50;;
11845;SDS011;5982;37.494;-8.758;2022-10-31T00:04:56;2.43;;;0.30;;
11845;SDS011;5982;37.494;-8.758;2022-10-31T00:07:24;4.15;;;0.47;;
11845;SDS011;5982;37.494;-8.758;2022-10-31T00:09:53;4.60;;;0.57;;
11845;SDS011;5982;37.494;-8.758;2022-10-31T00:12:22;7.55;;;0.60;;
11845;SDS011;5982;37.494;-8.758;2022-10-31T00:14:50;1.52;;;0.40;;
11845;SDS011;5982;37.494;-8.758;2022-10-31T00:17:18;2.03;;;0.50;;
11845;SDS011;5982;37.494;-8.758;2022-10-31T00:19:47;2.30;;;0.73;;
11845;SDS011;5982;37.494;-8.758;2022-10-31T00:22:15;3.17;;;0.52;;
11845;SDS011;5982;37.494;-8.758;2022-10-31T00:24:43;2.50;;;0.60;;
11845;SDS011;5982;37.494;-8.758;2022-10-31T00:27:13;4.53;;;0.60;;
11845;SDS011;5982;37.494;-8.758;2022-10-31T00:29:41;1.90;;;0.40;;
11845;SDS011;5982;37.494;-8.758;2022-10-31T00:32:10;5.75;;;0.90;;
11845;SDS011;5982;37.494;-8.758;2022-10-31T00:34:38;3.15;;;0.60;;
11845;SDS011;5982;37.494;-8.758;2022-10-31T00:37:07;5.68;;;0.68;;
11845;SDS011;5982;37.494;-8.758;2022-10-31T00:39:35;5.65;;;0.98;;
11845;SDS011;5982;37.494;-8.758;2022-10-31T00:42:03;2.73;;;0.70;;
11845;SDS011;5982;37.494;-8.758;2022-10-31T00:44:33;5.88;;;0.70;;
11845;SDS011;5982;37.494;-8.758;2022-10-31T00:47:01;4.05;;;0.70;;
11845;SDS011;5982;37.494;-8.758;2022-10-31T00:49:30;3.20;;;0.60;;
11845;SDS011;5982;37.494;-8.758;2022-10-31T00:51:58;4.80;;;0.90;;
11845;SDS011;5982;37.494;-8.758;2022-10-31T00:54:27;4.60;;;1.10;;
11845;SDS011;5982;37.494;-8.758;2022-10-31T00:56:56;3.53;;;0.73;;
11845;SDS011;5982;37.494;-8.758;2022-10-31T00:59:24;2.45;;;0.57;;
11845;SDS011;5982;37.494;-8.758;2022-10-31T01:01:54;4.57;;;1.08;;
11845;SDS011;5982;37.494;-8.758;2022-10-31T01:04:23;5.82;;;1.10;;
11845;SDS011;5982;37.494;-8.758;2022-10-31T01:06:51;5.83;;;1.13;;
11845;SDS011;5982;37.494;-8.758;2022-10-31T01:09:19;4.18;;;0.63;;
11845;SDS011;5982;37.494;-8.758;2022-10-31T01:11:48;3.40;;;0.98;;
11845;SDS011;5982;37.494;-8.758;2022-10-31T01:14:16;4.35;;;0.88;;
11845;SDS011;5982;37.494;-8.758;2022-10-31T01:16:44;4.18;;;0.88;;
11845;SDS011;5982;37.494;-8.758;2022-10-31T01:19:15;4.60;;;1.10;;
11845;SDS011;5982;37.494;-8.758;2022-10-31T01:21:45;3.80;;;1.08;;
11845;SDS011;5982;37.494;-8.758;2022-10-31T01:24:13;5.40;;;0.90;;
11845;SDS011;5982;37.494;-8.758;2022-10-31T01:26:41;7.78;;;1.00;;
11845;SDS011;5982;37.494;-8.758;2022-10-31T01:29:09;4.55;;;1.15;;
11845;SDS011;5982;37.494;-8.758;2022-10-31T01:31:38;5.67;;;0.90;;
11845;SDS011;5982;37.494;-8.758;2022-10-31T01:34:07;4.20;;;0.80;;
11845;SDS011;5982;37.494;-8.758;2022-10-31T01:36:42;4.80;;;0.90;;
11845;SDS011;5982;37.494;-8.758;2022-10-31T01:39:13;2.85;;;0.70;;
11845;SDS011;5982;37.494;-8.758;2022-10-31T01:41:43;6.05;;;1.25;;
11845;SDS011;5982;37.494;-8.758;2022-10-31T01:50:12;3.35;;;1.05;;
11845;SDS011;5982;37.494;-8.758;2022-10-31T01:52:48;3.53;;;1.00;;
11845;SDS011;5982;37.494;-8.758;2022-10-31T01:55:19;7.47;;;1.27;;
11845;SDS011;5982;37.494;-8.758;2022-10-31T01:57:52;5.20;;;1.20;;
11845;SDS011;5982;37.494;-8.758;2022-10-31T02:00:25;13.25;;;1.83;;
11845;SDS011;5982;37.494;-8.758;2022-10-31T02:02:53;9.98;;;1.60;;
11845;SDS011;5982;37.494;-8.758;2022-10-31T02:05:22;6.57;;;1.02;;
11845;SDS011;5982;37.494;-8.758;2022-10-31T02:07:57;5.78;;;1.17;;
11845;SDS011;5982;37.494;-8.758;2022-10-31T02:10:30;10.70;;;2.10;;
11845;SDS011;5982;37.494;-8.758;2022-10-31T02:13:01;6.50;;;1.25;;
11845;SDS011;5982;37.494;-8.758;2022-10-31T02:15:32;5.78;;;1.33;;
11845;SDS011;5982;37.494;-8.758;2022-10-31T02:18:02;5.72;;;1.40;;
11845;SDS011;5982;37.494;-8.758;2022-10-31T02:20:32;10.93;;;1.55;;
11845;SDS011;5982;37.494;-8.758;2022-10-31T02:26:41;6.65;;;1.40;;
11845;SDS011;5982;37.494;-8.758;2022-10-31T02:29:32;7.72;;;1.85;;
11845;SDS011;5982;37.494;-8.758;2022-10-31T02:32:40;10.60;;;1.75;;
11845;SDS011;5982;37.494;-8.758;2022-10-31T02:35:28;8.43;;;1.83;;
11845;SDS011;5982;37.494;-8.758;2022-10-31T02:38:11;8.50;;;1.47;;
11845;SDS011;5982;37.494;-8.758;2022-10-31T02:40:49;10.68;;;1.67;;
11845;SDS011;5982;37.494;-8.758;2022-10-31T02:43:27;7.03;;;1.77;;
11845;SDS011;5982;37.494;-8.758;2022-10-31T02:46:02;7.97;;;1.70;;
11845;SDS011;5982;37.494;-8.758;2022-10-31T02:48:41;12.00;;;2.38;;
11845;SDS011;5982;37.494;-8.758;2022-10-31T02:51:13;11.77;;;2.30;;
11845;SDS011;5982;37.494;-8.758;2022-10-31T02:53:43;14.18;;;2.47;;
11845;SDS011;5982;37.494;-8.758;2022-10-31T02:56:12;13.52;;;1.92;;
11845;SDS011;5982;37.494;-8.758;2022-10-31T02:58:44;14.48;;;2.78;;
11845;SDS011;5982;37.494;-8.758;2022-10-31T03:07:25;14.25;;;2.50;;
11845;SDS011;5982;37.494;-8.758;2022-10-31T03:10:07;15.75;;;3.33;;
11845;SDS011;5982;37.494;-8.758;2022-10-31T03:12:46;19.25;;;3.78;;
11845;SDS011;5982;37.494;-8.758;2022-10-31T03:15:25;19.50;;;5.45;;
11845;SDS011;5982;37.494;-8.758;2022-10-31T03:17:57;22.47;;;7.33;;
11845;SDS011;5982;37.494;-8.758;2022-10-31T03:20:36;30.25;;;8.20;;
11845;SDS011;5982;37.494;-8.758;2022-10-31T03:23:07;39.75;;;9.80;;
11845;SDS011;5982;37.494;-8.758;2022-10-31T03:25:41;30.65;;;9.05;;
11845;SDS011;5982;37.494;-8.758;2022-10-31T03:28:11;31.85;;;9.45;;
11845;SDS011;5982;37.494;-8.758;2022-10-31T03:30:43;37.07;;;10.87;;
11845;SDS011;5982;37.494;-8.758;2022-10-31T03:33:14;27.02;;;9.38;;
11845;SDS011;5982;37.494;-8.758;2022-10-31T03:35:48;34.53;;;11.35;;
11845;SDS011;5982;37.494;-8.758;2022-10-31T03:38:21;37.00;;;12.02;;
11845;SDS011;5982;37.494;-8.758;2022-10-31T03:40:50;49.03;;;14.27;;
11845;SDS011;5982;37.494;-8.758;2022-10-31T03:43:30;35.80;;;14.10;;
11845;SDS011;5982;37.494;-8.758;2022-10-31T03:46:04;39.65;;;13.52;;
11845;SDS011;5982;37.494;-8.758;2022-10-31T03:48:34;33.45;;;12.13;;
11845;SDS011;5982;37.494;-8.758;2022-10-31T03:51:05;33.15;;;11.70;;
11845;SDS011;5982;37.494;-8.758;2022-10-31T03:53:40;24.85;;;11.20;;
11845;SDS011;5982;37.494;-8.758;2022-10-31T03:56:16;29.60;;;12.03;;
11845;SDS011;5982;37.494;-8.758;2022-10-31T03:58:53;29.33;;;11.35;;
11845;SDS011;5982;37.494;-8.758;2022-10-31T04:01:26;31.50;;;11.07;;
11845;SDS011;5982;37.494;-8.758;2022-10-31T04:03:59;34.63;;;11.38;;
11845;SDS011;5982;37.494;-8.758;2022-10-31T04:06:30;30.65;;;10.90;;
11845;SDS011;5982;37.494;-8.758;2022-10-31T04:09:02;22.40;;;10.57;;
11845;SDS011;5982;37.494;-8.758;2022-10-31T04:11:34;28.33;;;11.85;;
11845;SDS011;5982;37.494;-8.758;2022-10-31T04:14:14;32.38;;;12.82;;
11845;SDS011;5982;37.494;-8.758;2022-10-31T04:16:43;23.60;;;12.50;;
11845;SDS011;5982;37.494;-8.758;2022-10-31T04:19:12;23.75;;;12.85;;
11845;SDS011;5982;37.494;-8.758;2022-10-31T04:21:43;32.63;;;13.70;;
11845;SDS011;5982;37.494;-8.758;2022-10-31T04:24:11;35.50;;;13.90;;
11845;SDS011;5982;37.494;-8.758;2022-10-31T04:26:39;27.10;;;13.43;;
11845;SDS011;5982;37.494;-8.758;2022-10-31T04:29:08;31.92;;;14.68;;
11845;SDS011;5982;37.494;-8.758;2022-10-31T04:31:36;38.95;;;16.13;;
11845;SDS011;5982;37.494;-8.758;2022-10-31T04:34:04;33.63;;;14.37;;
11845;SDS011;5982;37.494;-8.758;2022-10-31T04:36:33;33.45;;;15.52;;
11845;SDS011;5982;37.494;-8.758;2022-10-31T04:39:03;34.00;;;15.43;;
11845;SDS011;5982;37.494;-8.758;2022-10-31T04:41:31;31.60;;;14.68;;
11845;SDS011;5982;37.494;-8.758;2022-10-31T04:43:59;33.38;;;15.07;;
11845;SDS011;5982;37.494;-8.758;2022-10-31T04:46:28;37.87;;;14.90;;
11845;SDS011;5982;37.494;-8.758;2022-10-31T04:48:56;28.95;;;14.73;;
11845;SDS011;5982;37.494;-8.758;2022-10-31T04:51:24;27.50;;;14.25;;
11845;SDS011;5982;37.494;-8.758;2022-10-31T04:53:53;33.03;;;15.38;;
11845;SDS011;5982;37.494;-8.758;2022-10-31T04:56:23;35.13;;;15.90;;
11845;SDS011;5982;37.494;-8.758;2022-10-31T04:58:51;32.53;;;16.00;;
11845;SDS011;5982;37.494;-8.758;2022-10-31T05:01:20;27.30;;;15.98;;
11845;SDS011;5982;37.494;-8.758;2022-10-31T05:03:48;37.60;;;16.98;;
11845;SDS011;5982;37.494;-8.758;2022-10-31T05:06:17;36.05;;;16.38;;
11845;SDS011;5982;37.494;-8.758;2022-10-31T05:08:45;34.88;;;17.67;;
11845;SDS011;5982;37.494;-8.758;2022-10-31T05:11:13;35.53;;;17.37;;
11845;SDS011;5982;37.494;-8.758;2022-10-31T05:13:43;40.83;;;18.42;;
11845;SDS011;5982;37.494;-8.758;2022-10-31T05:16:11;33.10;;;18.23;;
11845;SDS011;5982;37.494;-8.758;2022-10-31T05:18:40;36.70;;;17.75;;
11845;SDS011;5982;37.494;-8.758;2022-10-31T05:21:08;33.85;;;17.70;;
11845;SDS011;5982;37.494;-8.758;2022-10-31T05:23:36;34.53;;;18.80;;
11845;SDS011;5982;37.494;-8.758;2022-10-31T05:26:04;37.53;;;19.63;;
11845;SDS011;5982;37.494;-8.758;2022-10-31T05:28:33;37.55;;;19.23;;
11845;SDS011;5982;37.494;-8.758;2022-10-31T05:31:03;37.03;;;19.55;;
11845;SDS011;5982;37.494;-8.758;2022-10-31T05:33:31;37.67;;;18.25;;
11845;SDS011;5982;37.494;-8.758;2022-10-31T05:36:00;37.50;;;18.43;;
11845;SDS011;5982;37.494;-8.758;2022-10-31T05:38:28;36.45;;;18.80;;
11845;SDS011;5982;37.494;-8.758;2022-10-31T05:40:56;35.05;;;18.20;;
11845;SDS011;5982;37.494;-8.758;2022-10-31T05:43:26;39.72;;;19.00;;
11845;SDS011;5982;37.494;-8.758;2022-10-31T05:45:55;36.00;;;19.08;;
11845;SDS011;5982;37.494;-8.758;2022-10-31T05:48:25;39.30;;;18.77;;
11845;SDS011;5982;37.494;-8.758;2022-10-31T05:50:53;34.80;;;19.00;;
11845;SDS011;5982;37.494;-8.758;2022-10-31T05:53:22;35.33;;;18.90;;
11845;SDS011;5982;37.494;-8.758;2022-10-31T05:55:50;36.10;;;19.30;;
11845;SDS011;5982;37.494;-8.758;2022-10-31T05:58:19;40.28;;;19.23;;
11845;SDS011;5982;37.494;-8.758;2022-10-31T06:00:47;34.60;;;18.77;;
11845;SDS011;5982;37.494;-8.758;2022-10-31T06:03:15;36.58;;;18.77;;
11845;SDS011;5982;37.494;-8.758;2022-10-31T06:05:45;44.35;;;19.15;;
11845;SDS011;5982;37.494;-8.758;2022-10-31T06:08:13;42.97;;;20.10;;
11845;SDS011;5982;37.494;-8.758;2022-10-31T06:10:42;40.03;;;19.15;;
11845;SDS011;5982;37.494;-8.758;2022-10-31T06:13:10;33.07;;;17.83;;
11845;SDS011;5982;37.494;-8.758;2022-10-31T06:15:39;35.25;;;18.55;;
11845;SDS011;5982;37.494;-8.758;2022-10-31T06:18:08;40.15;;;19.98;;
11845;SDS011;5982;37.494;-8.758;2022-10-31T06:20:36;36.17;;;18.92;;
11845;SDS011;5982;37.494;-8.758;2022-10-31T06:23:06;39.08;;;19.65;;
11845;SDS011;5982;37.494;-8.758;2022-10-31T06:25:34;34.37;;;18.60;;
11845;SDS011;5982;37.494;-8.758;2022-10-31T06:28:03;34.22;;;18.63;;
11845;SDS011;5982;37.494;-8.758;2022-10-31T06:30:31;40.42;;;19.95;;
11845;SDS011;5982;37.494;-8.758;2022-10-31T06:33:03;34.72;;;19.70;;
11845;SDS011;5982;37.494;-8.758;2022-10-31T06:35:31;44.28;;;20.77;;
11845;SDS011;5982;37.494;-8.758;2022-10-31T06:38:00;32.33;;;19.77;;
11845;SDS011;5982;37.494;-8.758;2022-10-31T06:40:29;34.05;;;19.33;;
11845;SDS011;5982;37.494;-8.758;2022-10-31T06:42:58;37.00;;;19.80;;
11845;SDS011;5982;37.494;-8.758;2022-10-31T06:45:27;35.38;;;18.95;;
11845;SDS011;5982;37.494;-8.758;2022-10-31T06:47:56;35.85;;;19.35;;
11845;SDS011;5982;37.494;-8.758;2022-10-31T06:50:25;35.87;;;20.30;;
11845;SDS011;5982;37.494;-8.758;2022-10-31T06:52:53;34.25;;;19.30;;
11845;SDS011;5982;37.494;-8.758;2022-10-31T06:55:25;37.83;;;19.75;;
11845;SDS011;5982;37.494;-8.758;2022-10-31T06:57:56;36.13;;;19.17;;
11845;SDS011;5982;37.494;-8.758;2022-10-31T07:00:26;37.10;;;19.15;;
11845;SDS011;5982;37.494;-8.758;2022-10-31T07:02:55;33.30;;;18.87;;
11845;SDS011;5982;37.494;-8.758;2022-10-31T07:05:25;43.92;;;19.50;;
11845;SDS011;5982;37.494;-8.758;2022-10-31T07:07:55;38.67;;;20.42;;
11845;SDS011;5982;37.494;-8.758;2022-10-31T07:10:25;39.15;;;20.15;;
11845;SDS011;5982;37.494;-8.758;2022-10-31T07:12:58;36.20;;;19.05;;
11845;SDS011;5982;37.494;-8.758;2022-10-31T07:15:29;40.60;;;19.40;;
11845;SDS011;5982;37.494;-8.758;2022-10-31T07:18:01;33.10;;;18.70;;
11845;SDS011;5982;37.494;-8.758;2022-10-31T07:20:30;40.95;;;19.92;;
11845;SDS011;5982;37.494;-8.758;2022-10-31T07:22:59;35.38;;;19.83;;
11845;SDS011;5982;37.494;-8.758;2022-10-31T07:25:27;32.42;;;18.92;;
11845;SDS011;5982;37.494;-8.758;2022-10-31T07:27:56;38.47;;;20.03;;
11845;SDS011;5982;37.494;-8.758;2022-10-31T07:30:26;37.10;;;19.27;;
11845;SDS011;5982;37.494;-8.758;2022-10-31T07:32:54;45.60;;;20.48;;
11845;SDS011;5982;37.494;-8.758;2022-10-31T07:35:23;30.85;;;18.27;;
11845;SDS011;5982;37.494;-8.758;2022-10-31T07:37:53;33.13;;;17.35;;
11845;SDS011;5982;37.494;-8.758;2022-10-31T07:40:22;35.20;;;17.60;;
11845;SDS011;5982;37.494;-8.758;2022-10-31T07:42:52;41.35;;;17.65;;
11845;SDS011;5982;37.494;-8.758;2022-10-31T07:45:22;34.95;;;18.48;;
11845;SDS011;5982;37.494;-8.758;2022-10-31T07:47:50;31.58;;;18.00;;
11845;SDS011;5982;37.494;-8.758;2022-10-31T07:50:20;31.00;;;17.45;;
11845;SDS011;5982;37.494;-8.758;2022-10-31T07:52:57;31.80;;;16.63;;
11845;SDS011;5982;37.494;-8.758;2022-10-31T07:55:27;30.38;;;17.52;;
11845;SDS011;5982;37.494;-8.758;2022-10-31T07:57:56;43.92;;;17.25;;
11845;SDS011;5982;37.494;-8.758;2022-10-31T08:00:27;30.90;;;17.05;;
11845;SDS011;5982;37.494;-8.758;2022-10-31T08:02:59;36.85;;;17.77;;
11845;SDS011;5982;37.494;-8.758;2022-10-31T08:05:28;37.60;;;19.13;;
11845;SDS011;5982;37.494;-8.758;2022-10-31T08:07:57;32.40;;;16.92;;
11845;SDS011;5982;37.494;-8.758;2022-10-31T08:10:26;33.67;;;17.02;;
11845;SDS011;5982;37.494;-8.758;2022-10-31T08:12:55;31.98;;;16.25;;
11845;SDS011;5982;37.494;-8.758;2022-10-31T08:15:25;38.40;;;16.13;;
11845;SDS011;5982;37.494;-8.758;2022-10-31T08:17:55;33.57;;;17.13;;
11845;SDS011;5982;37.494;-8.758;2022-10-31T08:20:24;41.92;;;17.58;;
11845;SDS011;5982;37.494;-8.758;2022-10-31T08:22:53;34.38;;;16.65;;
11845;SDS011;5982;37.494;-8.758;2022-10-31T08:25:23;30.85;;;17.95;;
11845;SDS011;5982;37.494;-8.758;2022-10-31T08:27:52;37.53;;;18.40;;
11845;SDS011;5982;37.494;-8.758;2022-10-31T08:30:23;40.20;;;21.57;;
11845;SDS011;5982;37.494;-8.758;2022-10-31T08:32:59;48.38;;;25.23;;
11845;SDS011;5982;37.494;-8.758;2022-10-31T08:35:29;44.28;;;21.42;;
11845;SDS011;5982;37.494;-8.758;2022-10-31T08:37:58;38.47;;;21.73;;
11845;SDS011;5982;37.494;-8.758;2022-10-31T08:40:27;39.10;;;21.65;;
11845;SDS011;5982;37.494;-8.758;2022-10-31T08:43:00;42.60;;;21.20;;
11845;SDS011;5982;37.494;-8.758;2022-10-31T08:45:33;41.42;;;23.48;;
11845;SDS011;5982;37.494;-8.758;2022-10-31T08:48:02;45.90;;;22.63;;
11845;SDS011;5982;37.494;-8.758;2022-10-31T08:50:35;35.33;;;19.10;;
11845;SDS011;5982;37.494;-8.758;2022-10-31T08:53:04;39.85;;;18.92;;
11845;SDS011;5982;37.494;-8.758;2022-10-31T08:55:35;29.73;;;16.17;;
11845;SDS011;5982;37.494;-8.758;2022-10-31T08:58:05;31.92;;;16.60;;
11845;SDS011;5982;37.494;-8.758;2022-10-31T09:00:37;30.98;;;16.25;;
11845;SDS011;5982;37.494;-8.758;2022-10-31T09:03:06;42.75;;;19.25;;
11845;SDS011;5982;37.494;-8.758;2022-10-31T09:05:38;36.45;;;19.25;;
11845;SDS011;5982;37.494;-8.758;2022-10-31T09:08:07;34.33;;;19.23;;
11845;SDS011;5982;37.494;-8.758;2022-10-31T09:10:36;52.80;;;27.17;;
11845;SDS011;5982;37.494;-8.758;2022-10-31T09:13:06;49.85;;;28.23;;
11845;SDS011;5982;37.494;-8.758;2022-10-31T09:15:38;43.45;;;23.58;;
11845;SDS011;5982;37.494;-8.758;2022-10-31T09:18:09;33.15;;;17.65;;
11845;SDS011;5982;37.494;-8.758;2022-10-31T09:20:38;32.57;;;15.83;;
11845;SDS011;5982;37.494;-8.758;2022-10-31T09:23:09;28.90;;;15.15;;
11845;SDS011;5982;37.494;-8.758;2022-10-31T09:25:39;30.77;;;15.35;;
11845;SDS011;5982;37.494;-8.758;2022-10-31T09:28:09;31.55;;;15.88;;
11845;SDS011;5982;37.494;-8.758;2022-10-31T09:30:42;37.83;;;19.85;;
11845;SDS011;5982;37.494;-8.758;2022-10-31T09:33:12;39.10;;;22.77;;
11845;SDS011;5982;37.494;-8.758;2022-10-31T09:35:41;50.25;;;23.92;;
11845;SDS011;5982;37.494;-8.758;2022-10-31T09:38:10;37.05;;;21.88;;
11845;SDS011;5982;37.494;-8.758;2022-10-31T09:40:41;25.10;;;14.82;;
11845;SDS011;5982;37.494;-8.758;2022-10-31T09:43:14;28.60;;;14.15;;
11845;SDS011;5982;37.494;-8.758;2022-10-31T09:45:54;27.83;;;14.47;;
11845;SDS011;5982;37.494;-8.758;2022-10-31T09:48:34;37.33;;;18.70;;
11845;SDS011;5982;37.494;-8.758;2022-10-31T09:51:17;29.13;;;13.73;;
11845;SDS011;5982;37.494;-8.758;2022-10-31T09:53:50;20.80;;;10.32;;
11845;SDS011;5982;37.494;-8.758;2022-10-31T09:56:23;24.98;;;9.38;;
11845;SDS011;5982;37.494;-8.758;2022-10-31T09:58:54;24.40;;;12.03;;
11845;SDS011;5982;37.494;-8.758;2022-10-31T10:01:30;25.38;;;10.55;;
11845;SDS011;5982;37.494;-8.758;2022-10-31T10:04:29;22.00;;;9.10;;
11845;SDS011;5982;37.494;-8.758;2022-10-31T10:07:06;25.92;;;8.07;;
11845;SDS011;5982;37.494;-8.758;2022-10-31T10:09:44;20.00;;;8.30;;
11845;SDS011;5982;37.494;-8.758;2022-10-31T10:12:15;21.67;;;8.80;;
11845;SDS011;5982;37.494;-8.758;2022-10-31T10:15:00;25.38;;;9.35;;
11845;SDS011;5982;37.494;-8.758;2022-10-31T10:17:53;25.17;;;9.95;;
11845;SDS011;5982;37.494;-8.758;2022-10-31T10:20:31;21.08;;;8.90;;
11845;SDS011;5982;37.494;-8.758;2022-10-31T10:23:11;17.15;;;7.78;;
11845;SDS011;5982;37.494;-8.758;2022-10-31T10:26:04;17.37;;;6.93;;
11845;SDS011;5982;37.494;-8.758;2022-10-31T10:28:44;22.75;;;7.13;;
11845;SDS011;5982;37.494;-8.758;2022-10-31T10:31:16;21.48;;;6.47;;
11845;SDS011;5982;37.494;-8.758;2022-10-31T10:33:55;23.98;;;6.30;;
11845;SDS011;5982;37.494;-8.758;2022-10-31T10:36:35;15.93;;;5.82;;
11845;SDS011;5982;37.494;-8.758;2022-10-31T10:39:09;16.88;;;6.05;;
11845;SDS011;5982;37.494;-8.758;2022-10-31T10:41:45;15.52;;;5.63;;
11845;SDS011;5982;37.494;-8.758;2022-10-31T10:44:35;23.95;;;5.22;;
11845;SDS011;5982;37.494;-8.758;2022-10-31T10:47:24;15.73;;;5.53;;
11845;SDS011;5982;37.494;-8.758;2022-10-31T10:50:09;22.98;;;5.55;;
11845;SDS011;5982;37.494;-8.758;2022-10-31T10:52:46;14.35;;;4.50;;
11845;SDS011;5982;37.494;-8.758;2022-10-31T10:55:24;16.30;;;4.78;;
11845;SDS011;5982;37.494;-8.758;2022-10-31T10:58:02;24.70;;;4.57;;
11845;SDS011;5982;37.494;-8.758;2022-10-31T11:00:34;16.77;;;3.53;;
11845;SDS011;5982;37.494;-8.758;2022-10-31T11:03:07;13.68;;;3.70;;
11845;SDS011;5982;37.494;-8.758;2022-10-31T11:05:39;26.08;;;3.83;;
11845;SDS011;5982;37.494;-8.758;2022-10-31T11:08:11;20.38;;;3.55;;
11845;SDS011;5982;37.494;-8.758;2022-10-31T11:11:01;16.58;;;3.40;;
11845;SDS011;5982;37.494;-8.758;2022-10-31T11:13:32;15.40;;;3.27;;
11845;SDS011;5982;37.494;-8.758;2022-10-31T11:16:03;14.32;;;3.33;;
11845;SDS011;5982;37.494;-8.758;2022-10-31T11:18:36;17.95;;;2.80;;
11845;SDS011;5982;37.494;-8.758;2022-10-31T11:21:19;15.48;;;2.72;;
11845;SDS011;5982;37.494;-8.758;2022-10-31T11:23:48;10.68;;;2.50;;
11845;SDS011;5982;37.494;-8.758;2022-10-31T11:26:19;10.17;;;1.83;;
11845;SDS011;5982;37.494;-8.758;2022-10-31T11:28:55;7.60;;;1.40;;
11845;SDS011;5982;37.494;-8.758;2022-10-31T11:31:25;6.90;;;1.40;;
11845;SDS011;5982;37.494;-8.758;2022-10-31T11:33:56;16.90;;;2.08;;
11845;SDS011;5982;37.494;-8.758;2022-10-31T11:36:31;8.13;;;1.90;;
11845;SDS011;5982;37.494;-8.758;2022-10-31T11:39:04;8.30;;;1.77;;
11845;SDS011;5982;37.494;-8.758;2022-10-31T11:41:42;12.75;;;1.77;;
11845;SDS011;5982;37.494;-8.758;2022-10-31T11:47:52;5.57;;;1.05;;
11845;SDS011;5982;37.494;-8.758;2022-10-31T11:50:24;9.98;;;1.60;;
11845;SDS011;5982;37.494;-8.758;2022-10-31T11:56:44;9.23;;;1.92;;
11845;SDS011;5982;37.494;-8.758;2022-10-31T12:03:13;9.57;;;1.20;;
11845;SDS011;5982;37.494;-8.758;2022-10-31T12:24:30;6.07;;;1.02;;
11845;SDS011;5982;37.494;-8.758;2022-10-31T12:27:28;9.12;;;1.33;;
11845;SDS011;5982;37.494;-8.758;2022-10-31T12:30:17;5.95;;;0.80;;
11845;SDS011;5982;37.494;-8.758;2022-10-31T12:32:54;4.72;;;0.68;;
11845;SDS011;5982;37.494;-8.758;2022-10-31T12:35:51;6.43;;;0.65;;
11845;SDS011;5982;37.494;-8.758;2022-10-31T12:38:55;6.03;;;1.20;;
11845;SDS011;5982;37.494;-8.758;2022-10-31T12:42:27;11.27;;;0.90;;
11845;SDS011;5982;37.494;-8.758;2022-10-31T12:45:18;7.90;;;1.13;;
11845;SDS011;5982;37.494;-8.758;2022-10-31T12:51:27;8.23;;;0.80;;
11845;SDS011;5982;37.494;-8.758;2022-10-31T12:57:03;6.75;;;0.80;;
11845;SDS011;5982;37.494;-8.758;2022-10-31T12:59:43;7.93;;;1.10;;
11845;SDS011;5982;37.494;-8.758;2022-10-31T13:02:16;6.27;;;0.60;;
11845;SDS011;5982;37.494;-8.758;2022-10-31T13:04:50;7.50;;;0.80;;
11845;SDS011;5982;37.494;-8.758;2022-10-31T13:07:23;5.28;;;0.80;;
11845;SDS011;5982;37.494;-8.758;2022-10-31T13:09:58;5.05;;;0.77;;
11845;SDS011;5982;37.494;-8.758;2022-10-31T13:12:33;5.88;;;0.80;;
11845;SDS011;5982;37.494;-8.758;2022-10-31T13:15:03;4.60;;;0.70;;
11845;SDS011;5982;37.494;-8.758;2022-10-31T13:17:42;9.43;;;0.75;;
11845;SDS011;5982;37.494;-8.758;2022-10-31T13:20:15;8.30;;;0.83;;
11845;SDS011;5982;37.494;-8.758;2022-10-31T13:22:51;8.32;;;0.93;;
11845;SDS011;5982;37.494;-8.758;2022-10-31T13:25:27;6.22;;;1.00;;
11845;SDS011;5982;37.494;-8.758;2022-10-31T13:28:00;11.60;;;0.83;;
11845;SDS011;5982;37.494;-8.758;2022-10-31T13:30:36;5.63;;;1.08;;
11845;SDS011;5982;37.494;-8.758;2022-10-31T13:33:08;10.48;;;1.20;;
11845;SDS011;5982;37.494;-8.758;2022-10-31T13:35:43;12.50;;;1.15;;
11845;SDS011;5982;37.494;-8.758;2022-10-31T13:38:23;12.87;;;1.40;;
11845;SDS011;5982;37.494;-8.758;2022-10-31T13:41:02;7.20;;;1.13;;
11845;SDS011;5982;37.494;-8.758;2022-10-31T13:43:54;8.02;;;1.40;;
11845;SDS011;5982;37.494;-8.758;2022-10-31T13:46:36;9.93;;;1.35;;
11845;SDS011;5982;37.494;-8.758;2022-10-31T13:49:21;7.63;;;1.00;;
11845;SDS011;5982;37.494;-8.758;2022-10-31T13:52:11;9.80;;;0.87;;
11845;SDS011;5982;37.494;-8.758;2022-10-31T13:54:50;9.90;;;0.73;;
11845;SDS011;5982;37.494;-8.758;2022-10-31T13:57:26;6.05;;;0.60;;
11845;SDS011;5982;37.494;-8.758;2022-10-31T14:00:21;8.68;;;0.88;;
11845;SDS011;5982;37.494;-8.758;2022-10-31T14:02:52;8.93;;;0.88;;
11845;SDS011;5982;37.494;-8.758;2022-10-31T14:05:25;7.80;;;1.10;;
11845;SDS011;5982;37.494;-8.758;2022-10-31T14:07:56;4.30;;;0.70;;
11845;SDS011;5982;37.494;-8.758;2022-10-31T14:10:28;8.23;;;1.13;;
11845;SDS011;5982;37.494;-8.758;2022-10-31T14:13:05;4.38;;;0.70;;
11845;SDS011;5982;37.494;-8.758;2022-10-31T14:15:40;8.18;;;1.02;;
11845;SDS011;5982;37.494;-8.758;2022-10-31T14:18:21;6.17;;;1.03;;
11845;SDS011;5982;37.494;-8.758;2022-10-31T14:20:52;7.70;;;1.00;;
11845;SDS011;5982;37.494;-8.758;2022-10-31T14:23:34;5.47;;;0.82;;
11845;SDS011;5982;37.494;-8.758;2022-10-31T14:26:06;6.07;;;1.23;;
11845;SDS011;5982;37.494;-8.758;2022-10-31T14:31:55;8.57;;;1.00;;
11845;SDS011;5982;37.494;-8.758;2022-10-31T14:34:39;10.00;;;1.70;;
11845;SDS011;5982;37.494;-8.758;2022-10-31T14:40:25;11.63;;;0.93;;
11845;SDS011;5982;37.494;-8.758;2022-10-31T14:43:04;8.20;;;1.17;;
11845;SDS011;5982;37.494;-8.758;2022-10-31T14:45:59;10.52;;;1.25;;
11845;SDS011;5982;37.494;-8.758;2022-10-31T14:48:43;15.15;;;1.80;;
11845;SDS011;5982;37.494;-8.758;2022-10-31T14:51:32;8.37;;;1.27;;
11845;SDS011;5982;37.494;-8.758;2022-10-31T14:54:06;7.43;;;1.23;;
11845;SDS011;5982;37.494;-8.758;2022-10-31T14:56:41;9.35;;;1.35;;
11845;SDS011;5982;37.494;-8.758;2022-10-31T14:59:18;6.78;;;0.82;;
11845;SDS011;5982;37.494;-8.758;2022-10-31T15:01:55;7.28;;;1.25;;
11845;SDS011;5982;37.494;-8.758;2022-10-31T15:04:27;6.97;;;1.03;;
11845;SDS011;5982;37.494;-8.758;2022-10-31T15:07:00;9.60;;;1.10;;
11845;SDS011;5982;37.494;-8.758;2022-10-31T15:09:34;8.50;;;1.35;;
11845;SDS011;5982;37.494;-8.758;2022-10-31T15:12:20;11.68;;;1.65;;
11845;SDS011;5982;37.494;-8.758;2022-10-31T15:14:51;13.30;;;1.20;;
11845;SDS011;5982;37.494;-8.758;2022-10-31T15:17:22;9.70;;;1.50;;
11845;SDS011;5982;37.494;-8.758;2022-10-31T15:19:52;8.50;;;1.17;;
11845;SDS011;5982;37.494;-8.758;2022-10-31T15:22:22;9.57;;;1.30;;
11845;SDS011;5982;37.494;-8.758;2022-10-31T15:24:53;9.88;;;1.50;;
11845;SDS011;5982;37.494;-8.758;2022-10-31T15:27:22;10.18;;;1.48;;
11845;SDS011;5982;37.494;-8.758;2022-10-31T15:29:52;8.13;;;1.37;;
11845;SDS011;5982;37.494;-8.758;2022-10-31T15:32:23;15.05;;;1.83;;
11845;SDS011;5982;37.494;-8.758;2022-10-31T15:34:53;9.95;;;1.52;;
11845;SDS011;5982;37.494;-8.758;2022-10-31T15:37:23;9.60;;;1.45;;
11845;SDS011;5982;37.494;-8.758;2022-10-31T15:39:53;11.27;;;1.52;;
11845;SDS011;5982;37.494;-8.758;2022-10-31T15:42:23;7.53;;;1.23;;
11845;SDS011;5982;37.494;-8.758;2022-10-31T15:44:57;8.80;;;1.50;;
11845;SDS011;5982;37.494;-8.758;2022-10-31T15:47:31;13.65;;;1.35;;
11845;SDS011;5982;37.494;-8.758;2022-10-31T15:50:00;8.90;;;1.60;;
11845;SDS011;5982;37.494;-8.758;2022-10-31T15:52:38;14.52;;;1.77;;
11845;SDS011;5982;37.494;-8.758;2022-10-31T15:55:15;9.43;;;1.00;;
11845;SDS011;5982;37.494;-8.758;2022-10-31T15:57:47;8.93;;;1.30;;
11845;SDS011;5982;37.494;-8.758;2022-10-31T16:00:23;10.98;;;1.33;;
11845;SDS011;5982;37.494;-8.758;2022-10-31T16:03:05;10.05;;;1.58;;
11845;SDS011;5982;37.494;-8.758;2022-10-31T16:05:38;10.13;;;1.13;;
11845;SDS011;5982;37.494;-8.758;2022-10-31T16:08:22;15.23;;;1.33;;